• Join FlightAware (Why Join?)
  • Login
  • US Flag 
07:36PM EDT


 

Airport Tracker/Info


-or-


 

Live Flight TrackerFlight Track Log ✈ WBR2634 ✈ 04-Jun-2013 ✈ KBRL - KORD

Flight Track Log - Related Links

Times and Time Zones

All times are in EDT time to prevent confusion due to time zone crossing. See the WBR2634 flight status page for this flight to view local times or setup timezone preferences in your user account.

Time Position Orientation Groundspeed Altitude Reporting Facility
EDT Latitude Longitude Course Direction KTS MPH feet Rate Location/Type
05:59PM 40.7778 -91.0514 73° East 91 105 2,900  Level Chicago Center
06:00PM 40.8667 -90.7651 90° East  Level FlightAware Approximate
06:00PM 40.7894 -91.0117 69° East 113 130 3,700  Level Chicago Center
06:01PM 40.8780 -90.7047 72° East  Level FlightAware Approximate
06:01PM 40.8003 -90.9692 71° East 118 136 4,400  Level Chicago Center
06:02PM 40.8923 -90.6448 73° East  Level FlightAware Approximate
06:02PM 40.8117 -90.9242 71° East 126 145 5,000  Level Chicago Center
06:03PM 40.9063 -90.5847 73° East  Level FlightAware Approximate
06:03PM 40.8250 -90.8631 74° East 141 162 5,600  Level Chicago Center
06:04PM 40.9202 -90.5245 73° East  Level FlightAware Approximate
06:04PM 40.8419 -90.8117 66° East 149 171 6,100  Level Chicago Center
06:05PM 40.8586 -90.7611 66° East 151 174 6,600 420 Climbing Chicago Center
06:06PM 40.8769 -90.7108 64° Northeast 152 175 7,000 420 Climbing Chicago Center
06:07PM 40.8958 -90.6581 65° Northeast 158 182 7,500 480 Climbing Chicago Center
06:08PM 40.9139 -90.6039 66° East 161 185 8,000 480 Climbing Chicago Center
06:09PM 40.9356 -90.5414 65° Northeast 158 182 8,500 480 Climbing Chicago Center
06:10PM 40.9567 -90.4875 63° Northeast 163 188 9,000 240 Climbing Chicago Center
06:11PM 40.9750 -90.4331 66° East 163 188 9,100  Climbing Chicago Center
06:12PM 40.9964 -90.3781 63° Northeast 167 192 9,100 -60 Level Chicago Center
06:13PM 41.0164 -90.3200 65° Northeast 172 198 9,000 -60 Descending Chicago Center
06:14PM 41.0358 -90.2600 67° East 176 203 9,000 -60 Level Chicago Center
06:16PM 41.0533 -90.2008 69° East 174 200 8,900  Descending Chicago Center
06:17PM 41.0789 -90.1336 63° Northeast 169 194 9,000  Climbing Chicago Center
06:18PM 41.1008 -90.0808 61° Northeast 167 192 9,000  Level Chicago Center
06:19PM 41.1211 -90.0256 64° Northeast 165 190 9,000  Level Chicago Center
06:20PM 41.1422 -89.9700 63° Northeast 167 192 9,100  Climbing Chicago Center
06:21PM 41.1617 -89.9133 65° Northeast 168 193 9,100 -60 Level Chicago Center
06:22PM 41.1803 -89.8556 67° East 170 196 9,000  Descending Chicago Center
06:23PM 41.2014 -89.8000 63° Northeast 169 194 9,100  Climbing Chicago Center
06:24PM 41.2272 -89.7317 63° Northeast 171 197 9,100 -60 Level Chicago Center
06:25PM 41.2475 -89.6744 65° Northeast 171 197 9,000 -60 Descending Chicago Center
06:26PM 41.2697 -89.6172 63° Northeast 173 199 9,000 -60 Level Chicago Center
06:27PM 41.2892 -89.5597 66° East 171 197 8,900 -60 Descending Chicago Center
06:28PM 41.3050 -89.4992 71° East 173 199 8,900 -60 Level Chicago Center
06:29PM 41.3306 -89.4456 58° Northeast 172 198 8,800  Descending Chicago Center
06:30PM 41.3564 -89.3775 63° Northeast 172 198 8,900 60 Climbing Chicago Center
06:31PM 41.3739 -89.3203 68° East 167 192 9,000  Climbing Chicago Center
06:32PM 41.3933 -89.2631 66° East 168 193 9,000 -60 Level Chicago Center
06:33PM 41.4125 -89.2053 66° East 170 196 8,900 -60 Descending Chicago Center
06:34PM 41.4317 -89.1425 68° East 169 194 8,900  Level Chicago Center
06:35PM 41.4525 -89.0844 64° Northeast 173 199 8,900  Level Chicago Center
06:36PM 41.4714 -89.0275 66° East 171 197 8,900  Level Chicago Center
06:37PM 41.4978 -88.9611 62° Northeast 168 193 8,900  Level Chicago Center
06:38PM 41.5172 -88.9017 66° East 174 200 8,900  Level Chicago Center
06:39PM 41.5331 -88.8422 70° East 172 198 8,900  Level Chicago Center
06:40PM 41.5536 -88.7856 64° Northeast 170 196 9,000 -240 Climbing Chicago Center
06:41PM 41.5747 -88.7239 65° Northeast 181 208 8,400 -480 Descending Chicago Center
06:42PM 41.5953 -88.6614 66° East 184 212 8,100 -300 Descending Chicago Center
06:43PM 41.6186 -88.5919 66° East 173 199 7,900 -60 Descending Chicago Center
06:45PM 41.6444 -88.5431 55° Northeast 163 188 8,000 60 Climbing Chicago Center
06:46PM 41.6639 -88.4922 63° Northeast 160 184 8,100  Climbing Chicago Center
06:47PM 41.6694 -88.4342 83° East 158 182 8,100 -240 Level Chicago Center
06:48PM 41.6733 -88.3708 85° East 168 193 7,700 -480 Descending Chicago Center
06:49PM 41.6994 -88.3036 62° Northeast 181 208 7,200 -660 Descending Chicago Center
06:50PM 41.7436 -88.2692 30° Northeast 185 213 6,400 -720 Descending Chicago Center
06:51PM 41.7872 -88.2339 31° Northeast 184 212 5,800 -660 Descending Chicago Center
06:52PM 41.8189 -88.1894 46° Northeast 180 207 5,100 -720 Descending Chicago Center
06:53PM 41.7922 -88.1428 127° Southeast 186 214 4,400 -600 Descending Chicago Center
06:54PM 41.7864 -88.0925 99° East 175 201 3,900 -300 Descending Chicago Center
06:55PM 41.8303 -88.0514 35° Northeast 166 191 3,900 -480 Level Chicago Center
06:56PM 41.8650 -88.0067 44° Northeast 168 193 3,000 -1,020 Descending Chicago Center
06:56PM 41.8833 -87.9833 43° Northeast 173 199 2,400 -1,020 Descending Chicago TRACON
06:57PM 41.9167 -87.9333 48° Northeast 150 173 1,500 -720 Descending Chicago TRACON
06:58PM 41.9500 -87.9167 20° North 122 140 1,000 -540 Descending Chicago TRACON
07:00PM 41.9667 -87.9000 56° Northeast  Level FlightAware Approximate